sensor_id;sensor_type;location;lat;lon;timestamp;P1;durP1;ratioP1;P2;durP2;ratioP2
74677;SDS011;67324;56.326;43.982;2023-05-10T00:01:03;4.15;;;3.20;;
74677;SDS011;67324;56.326;43.982;2023-05-10T00:03:29;3.50;;;3.20;;
74677;SDS011;67324;56.326;43.982;2023-05-10T00:05:55;4.25;;;3.22;;
74677;SDS011;67324;56.326;43.982;2023-05-10T00:08:21;4.40;;;3.00;;
74677;SDS011;67324;56.326;43.982;2023-05-10T00:10:47;4.53;;;3.10;;
74677;SDS011;67324;56.326;43.982;2023-05-10T00:13:13;3.67;;;3.00;;
74677;SDS011;67324;56.326;43.982;2023-05-10T00:15:38;3.72;;;2.78;;
74677;SDS011;67324;56.326;43.982;2023-05-10T00:18:04;4.50;;;3.25;;
74677;SDS011;67324;56.326;43.982;2023-05-10T00:20:30;4.45;;;3.20;;
74677;SDS011;67324;56.326;43.982;2023-05-10T00:22:56;3.60;;;3.05;;
74677;SDS011;67324;56.326;43.982;2023-05-10T00:25:22;4.82;;;3.50;;
74677;SDS011;67324;56.326;43.982;2023-05-10T00:27:48;3.55;;;3.17;;
74677;SDS011;67324;56.326;43.982;2023-05-10T00:30:15;4.07;;;3.10;;
74677;SDS011;67324;56.326;43.982;2023-05-10T00:32:41;3.97;;;3.22;;
74677;SDS011;67324;56.326;43.982;2023-05-10T00:35:07;3.75;;;2.97;;
74677;SDS011;67324;56.326;43.982;2023-05-10T00:37:33;4.00;;;3.10;;
74677;SDS011;67324;56.326;43.982;2023-05-10T00:39:59;4.05;;;3.03;;
74677;SDS011;67324;56.326;43.982;2023-05-10T00:42:26;4.47;;;3.15;;
74677;SDS011;67324;56.326;43.982;2023-05-10T00:44:53;4.15;;;3.28;;
74677;SDS011;67324;56.326;43.982;2023-05-10T00:47:19;4.25;;;2.97;;
74677;SDS011;67324;56.326;43.982;2023-05-10T00:49:45;3.38;;;3.08;;
74677;SDS011;67324;56.326;43.982;2023-05-10T00:52:11;3.67;;;3.03;;
74677;SDS011;67324;56.326;43.982;2023-05-10T00:54:37;3.42;;;2.55;;
74677;SDS011;67324;56.326;43.982;2023-05-10T00:57:03;3.70;;;2.90;;
74677;SDS011;67324;56.326;43.982;2023-05-10T00:59:29;4.10;;;2.88;;
74677;SDS011;67324;56.326;43.982;2023-05-10T01:01:56;3.10;;;2.80;;
74677;SDS011;67324;56.326;43.982;2023-05-10T01:04:23;3.50;;;3.10;;
74677;SDS011;67324;56.326;43.982;2023-05-10T01:06:51;3.90;;;3.00;;
74677;SDS011;67324;56.326;43.982;2023-05-10T01:09:19;3.65;;;3.00;;
74677;SDS011;67324;56.326;43.982;2023-05-10T01:11:46;3.47;;;3.13;;
74677;SDS011;67324;56.326;43.982;2023-05-10T01:14:14;3.88;;;3.20;;
74677;SDS011;67324;56.326;43.982;2023-05-10T01:16:44;3.47;;;2.88;;
74677;SDS011;67324;56.326;43.982;2023-05-10T01:19:18;4.25;;;3.10;;
74677;SDS011;67324;56.326;43.982;2023-05-10T01:33:16;4.20;;;3.28;;
74677;SDS011;67324;56.326;43.982;2023-05-10T01:35:51;4.07;;;3.10;;
74677;SDS011;67324;56.326;43.982;2023-05-10T01:38:32;3.97;;;3.20;;
74677;SDS011;67324;56.326;43.982;2023-05-10T01:41:41;4.32;;;2.90;;
74677;SDS011;67324;56.326;43.982;2023-05-10T01:46:53;3.72;;;2.90;;
74677;SDS011;67324;56.326;43.982;2023-05-10T01:49:31;4.05;;;3.10;;
74677;SDS011;67324;56.326;43.982;2023-05-10T01:52:06;4.18;;;2.85;;
74677;SDS011;67324;56.326;43.982;2023-05-10T01:57:23;3.22;;;2.78;;
74677;SDS011;67324;56.326;43.982;2023-05-10T01:59:53;3.40;;;3.10;;
74677;SDS011;67324;56.326;43.982;2023-05-10T02:02:20;4.85;;;3.40;;
74677;SDS011;67324;56.326;43.982;2023-05-10T02:04:48;4.10;;;3.10;;
74677;SDS011;67324;56.326;43.982;2023-05-10T02:07:15;3.63;;;3.05;;
74677;SDS011;67324;56.326;43.982;2023-05-10T02:09:44;3.50;;;2.88;;
74677;SDS011;67324;56.326;43.982;2023-05-10T02:12:13;3.35;;;2.97;;
74677;SDS011;67324;56.326;43.982;2023-05-10T02:14:41;3.47;;;3.05;;
74677;SDS011;67324;56.326;43.982;2023-05-10T02:17:08;3.33;;;2.80;;
74677;SDS011;67324;56.326;43.982;2023-05-10T02:19:38;3.85;;;2.95;;
74677;SDS011;67324;56.326;43.982;2023-05-10T02:22:07;4.30;;;2.95;;
74677;SDS011;67324;56.326;43.982;2023-05-10T02:24:34;3.78;;;3.03;;
74677;SDS011;67324;56.326;43.982;2023-05-10T02:27:02;3.50;;;3.20;;
74677;SDS011;67324;56.326;43.982;2023-05-10T02:29:29;3.30;;;2.80;;
74677;SDS011;67324;56.326;43.982;2023-05-10T02:31:56;3.75;;;2.97;;
74677;SDS011;67324;56.326;43.982;2023-05-10T02:34:26;4.25;;;3.25;;
74677;SDS011;67324;56.326;43.982;2023-05-10T02:36:53;3.60;;;2.90;;
74677;SDS011;67324;56.326;43.982;2023-05-10T02:39:22;3.85;;;2.97;;
74677;SDS011;67324;56.326;43.982;2023-05-10T02:41:50;3.83;;;2.78;;
74677;SDS011;67324;56.326;43.982;2023-05-10T02:44:18;4.18;;;3.15;;
74677;SDS011;67324;56.326;43.982;2023-05-10T02:46:46;3.80;;;2.80;;
74677;SDS011;67324;56.326;43.982;2023-05-10T02:49:14;3.00;;;2.70;;
74677;SDS011;67324;56.326;43.982;2023-05-10T02:51:42;3.63;;;3.22;;
74677;SDS011;67324;56.326;43.982;2023-05-10T02:54:15;3.80;;;2.85;;
74677;SDS011;67324;56.326;43.982;2023-05-10T02:56:54;3.13;;;2.70;;
74677;SDS011;67324;56.326;43.982;2023-05-10T02:59:23;3.47;;;3.00;;
74677;SDS011;67324;56.326;43.982;2023-05-10T03:01:49;3.30;;;2.92;;
74677;SDS011;67324;56.326;43.982;2023-05-10T03:04:15;3.47;;;3.10;;
74677;SDS011;67324;56.326;43.982;2023-05-10T03:06:41;4.50;;;2.90;;
74677;SDS011;67324;56.326;43.982;2023-05-10T03:09:07;3.35;;;2.92;;
74677;SDS011;67324;56.326;43.982;2023-05-10T03:17:04;3.55;;;3.00;;
74677;SDS011;67324;56.326;43.982;2023-05-10T03:19:40;3.70;;;3.00;;
74677;SDS011;67324;56.326;43.982;2023-05-10T03:22:13;3.67;;;2.85;;
74677;SDS011;67324;56.326;43.982;2023-05-10T03:24:46;4.07;;;3.13;;
74677;SDS011;67324;56.326;43.982;2023-05-10T03:27:15;3.22;;;2.70;;
74677;SDS011;67324;56.326;43.982;2023-05-10T03:29:42;3.28;;;2.60;;
74677;SDS011;67324;56.326;43.982;2023-05-10T03:32:30;3.47;;;2.80;;
74677;SDS011;67324;56.326;43.982;2023-05-10T03:35:00;3.95;;;3.05;;
74677;SDS011;67324;56.326;43.982;2023-05-10T03:37:29;3.10;;;2.80;;
74677;SDS011;67324;56.326;43.982;2023-05-10T03:39:55;3.50;;;2.70;;
74677;SDS011;67324;56.326;43.982;2023-05-10T03:42:21;3.20;;;2.90;;
74677;SDS011;67324;56.326;43.982;2023-05-10T03:44:47;3.83;;;3.13;;
74677;SDS011;67324;56.326;43.982;2023-05-10T03:47:14;3.45;;;2.97;;
74677;SDS011;67324;56.326;43.982;2023-05-10T03:49:40;3.72;;;3.05;;
74677;SDS011;67324;56.326;43.982;2023-05-10T03:52:06;4.00;;;2.88;;
74677;SDS011;67324;56.326;43.982;2023-05-10T03:54:33;3.65;;;3.03;;
74677;SDS011;67324;56.326;43.982;2023-05-10T03:56:58;3.20;;;2.70;;
74677;SDS011;67324;56.326;43.982;2023-05-10T03:59:26;3.95;;;3.00;;
74677;SDS011;67324;56.326;43.982;2023-05-10T04:01:52;3.72;;;2.95;;
74677;SDS011;67324;56.326;43.982;2023-05-10T04:04:18;3.75;;;3.00;;
74677;SDS011;67324;56.326;43.982;2023-05-10T04:06:47;3.30;;;2.80;;
74677;SDS011;67324;56.326;43.982;2023-05-10T04:09:13;3.70;;;2.70;;
74677;SDS011;67324;56.326;43.982;2023-05-10T04:11:39;2.97;;;2.65;;
74677;SDS011;67324;56.326;43.982;2023-05-10T04:14:05;3.78;;;2.95;;
74677;SDS011;67324;56.326;43.982;2023-05-10T04:16:31;3.88;;;2.72;;
74677;SDS011;67324;56.326;43.982;2023-05-10T04:18:57;3.38;;;2.58;;
74677;SDS011;67324;56.326;43.982;2023-05-10T04:21:23;3.38;;;2.78;;
74677;SDS011;67324;56.326;43.982;2023-05-10T04:23:49;4.20;;;3.28;;
74677;SDS011;67324;56.326;43.982;2023-05-10T04:26:15;3.95;;;3.22;;
74677;SDS011;67324;56.326;43.982;2023-05-10T04:28:41;3.28;;;2.97;;
74677;SDS011;67324;56.326;43.982;2023-05-10T04:31:07;3.88;;;2.90;;
74677;SDS011;67324;56.326;43.982;2023-05-10T04:33:35;3.67;;;3.00;;
74677;SDS011;67324;56.326;43.982;2023-05-10T04:36:01;3.38;;;2.83;;
74677;SDS011;67324;56.326;43.982;2023-05-10T04:38:28;3.95;;;2.90;;
74677;SDS011;67324;56.326;43.982;2023-05-10T04:41:03;3.50;;;2.90;;
74677;SDS011;67324;56.326;43.982;2023-05-10T04:43:30;4.20;;;3.10;;
74677;SDS011;67324;56.326;43.982;2023-05-10T04:45:56;3.60;;;2.80;;
74677;SDS011;67324;56.326;43.982;2023-05-10T04:48:22;3.35;;;3.05;;
74677;SDS011;67324;56.326;43.982;2023-05-10T04:50:48;3.20;;;2.70;;
74677;SDS011;67324;56.326;43.982;2023-05-10T04:53:14;3.90;;;2.80;;
74677;SDS011;67324;56.326;43.982;2023-05-10T04:55:40;4.05;;;2.90;;
74677;SDS011;67324;56.326;43.982;2023-05-10T04:58:06;3.53;;;2.88;;
74677;SDS011;67324;56.326;43.982;2023-05-10T05:00:51;3.67;;;2.78;;
74677;SDS011;67324;56.326;43.982;2023-05-10T05:03:17;3.70;;;3.00;;
74677;SDS011;67324;56.326;43.982;2023-05-10T05:05:43;3.20;;;2.60;;
74677;SDS011;67324;56.326;43.982;2023-05-10T05:08:10;3.40;;;2.75;;
74677;SDS011;67324;56.326;43.982;2023-05-10T05:10:35;3.00;;;2.65;;
74677;SDS011;67324;56.326;43.982;2023-05-10T05:13:01;3.15;;;2.58;;
74677;SDS011;67324;56.326;43.982;2023-05-10T05:15:27;3.65;;;2.88;;
74677;SDS011;67324;56.326;43.982;2023-05-10T05:17:53;3.85;;;2.95;;
74677;SDS011;67324;56.326;43.982;2023-05-10T05:20:19;3.08;;;2.75;;
74677;SDS011;67324;56.326;43.982;2023-05-10T05:22:45;3.55;;;3.20;;
74677;SDS011;67324;56.326;43.982;2023-05-10T05:25:11;3.50;;;2.90;;
74677;SDS011;67324;56.326;43.982;2023-05-10T05:27:38;3.30;;;2.95;;
74677;SDS011;67324;56.326;43.982;2023-05-10T05:30:04;3.33;;;2.83;;
74677;SDS011;67324;56.326;43.982;2023-05-10T05:32:30;3.28;;;2.60;;
74677;SDS011;67324;56.326;43.982;2023-05-10T05:34:56;3.20;;;2.60;;
74677;SDS011;67324;56.326;43.982;2023-05-10T05:37:22;3.33;;;2.90;;
74677;SDS011;67324;56.326;43.982;2023-05-10T05:39:49;3.40;;;2.80;;
74677;SDS011;67324;56.326;43.982;2023-05-10T05:42:15;2.95;;;2.65;;
74677;SDS011;67324;56.326;43.982;2023-05-10T05:44:43;3.15;;;2.85;;
74677;SDS011;67324;56.326;43.982;2023-05-10T05:47:09;3.10;;;2.75;;
74677;SDS011;67324;56.326;43.982;2023-05-10T05:49:35;3.00;;;2.70;;
74677;SDS011;67324;56.326;43.982;2023-05-10T05:52:02;2.90;;;2.53;;
74677;SDS011;67324;56.326;43.982;2023-05-10T05:54:29;3.58;;;3.08;;
74677;SDS011;67324;56.326;43.982;2023-05-10T05:56:57;2.88;;;2.58;;
74677;SDS011;67324;56.326;43.982;2023-05-10T05:59:23;3.67;;;3.10;;
74677;SDS011;67324;56.326;43.982;2023-05-10T06:01:50;3.45;;;2.60;;
74677;SDS011;67324;56.326;43.982;2023-05-10T06:04:16;2.92;;;2.55;;
74677;SDS011;67324;56.326;43.982;2023-05-10T06:06:42;3.10;;;2.60;;
74677;SDS011;67324;56.326;43.982;2023-05-10T06:09:08;3.25;;;2.75;;
74677;SDS011;67324;56.326;43.982;2023-05-10T06:11:35;3.15;;;2.63;;
74677;SDS011;67324;56.326;43.982;2023-05-10T06:14:01;3.53;;;2.88;;
74677;SDS011;67324;56.326;43.982;2023-05-10T06:16:33;3.20;;;2.90;;
74677;SDS011;67324;56.326;43.982;2023-05-10T06:19:00;3.30;;;2.80;;
74677;SDS011;67324;56.326;43.982;2023-05-10T06:21:26;3.45;;;2.80;;
74677;SDS011;67324;56.326;43.982;2023-05-10T06:23:52;3.10;;;2.80;;
74677;SDS011;67324;56.326;43.982;2023-05-10T06:26:17;3.03;;;2.60;;
74677;SDS011;67324;56.326;43.982;2023-05-10T06:28:43;3.03;;;2.75;;
74677;SDS011;67324;56.326;43.982;2023-05-10T06:31:09;2.97;;;2.67;;
74677;SDS011;67324;56.326;43.982;2023-05-10T06:33:37;3.58;;;2.80;;
74677;SDS011;67324;56.326;43.982;2023-05-10T06:36:03;3.60;;;2.80;;
74677;SDS011;67324;56.326;43.982;2023-05-10T06:38:29;3.17;;;2.78;;
74677;SDS011;67324;56.326;43.982;2023-05-10T06:40:55;3.17;;;2.75;;
74677;SDS011;67324;56.326;43.982;2023-05-10T06:43:39;3.45;;;2.50;;
74677;SDS011;67324;56.326;43.982;2023-05-10T06:46:07;3.08;;;2.70;;
74677;SDS011;67324;56.326;43.982;2023-05-10T06:48:33;3.50;;;2.80;;
74677;SDS011;67324;56.326;43.982;2023-05-10T06:51:00;3.05;;;2.75;;
74677;SDS011;67324;56.326;43.982;2023-05-10T06:53:26;3.85;;;2.97;;
74677;SDS011;67324;56.326;43.982;2023-05-10T06:55:52;3.28;;;2.88;;
74677;SDS011;67324;56.326;43.982;2023-05-10T06:58:18;3.22;;;2.92;;
74677;SDS011;67324;56.326;43.982;2023-05-10T07:00:44;3.33;;;2.95;;
74677;SDS011;67324;56.326;43.982;2023-05-10T07:03:11;3.17;;;2.78;;
74677;SDS011;67324;56.326;43.982;2023-05-10T07:05:37;3.13;;;2.70;;
74677;SDS011;67324;56.326;43.982;2023-05-10T07:08:03;3.20;;;2.78;;
74677;SDS011;67324;56.326;43.982;2023-05-10T07:10:30;4.05;;;2.70;;
74677;SDS011;67324;56.326;43.982;2023-05-10T07:12:55;2.90;;;2.60;;
74677;SDS011;67324;56.326;43.982;2023-05-10T07:15:21;3.45;;;3.05;;
74677;SDS011;67324;56.326;43.982;2023-05-10T07:17:48;3.05;;;2.75;;
74677;SDS011;67324;56.326;43.982;2023-05-10T07:20:14;3.55;;;2.85;;
74677;SDS011;67324;56.326;43.982;2023-05-10T07:22:40;3.55;;;2.50;;
74677;SDS011;67324;56.326;43.982;2023-05-10T07:25:06;3.80;;;3.03;;
74677;SDS011;67324;56.326;43.982;2023-05-10T07:27:33;3.35;;;2.60;;
74677;SDS011;67324;56.326;43.982;2023-05-10T07:29:59;3.05;;;2.75;;
74677;SDS011;67324;56.326;43.982;2023-05-10T07:32:26;3.58;;;2.78;;
74677;SDS011;67324;56.326;43.982;2023-05-10T07:34:52;3.45;;;2.70;;
74677;SDS011;67324;56.326;43.982;2023-05-10T07:37:18;3.13;;;2.83;;
74677;SDS011;67324;56.326;43.982;2023-05-10T07:39:44;3.78;;;2.85;;
74677;SDS011;67324;56.326;43.982;2023-05-10T07:42:10;3.58;;;2.60;;
74677;SDS011;67324;56.326;43.982;2023-05-10T07:44:36;4.75;;;3.08;;
74677;SDS011;67324;56.326;43.982;2023-05-10T07:47:02;3.47;;;2.63;;
74677;SDS011;67324;56.326;43.982;2023-05-10T07:49:27;3.40;;;2.55;;
74677;SDS011;67324;56.326;43.982;2023-05-10T07:51:53;3.33;;;2.72;;
74677;SDS011;67324;56.326;43.982;2023-05-10T07:54:19;4.10;;;2.75;;
74677;SDS011;67324;56.326;43.982;2023-05-10T07:56:45;3.78;;;2.90;;
74677;SDS011;67324;56.326;43.982;2023-05-10T07:59:16;3.35;;;2.40;;
74677;SDS011;67324;56.326;43.982;2023-05-10T08:01:43;3.08;;;2.45;;
74677;SDS011;67324;56.326;43.982;2023-05-10T08:04:10;3.80;;;2.78;;
74677;SDS011;67324;56.326;43.982;2023-05-10T08:06:37;3.60;;;2.70;;
74677;SDS011;67324;56.326;43.982;2023-05-10T08:09:03;3.58;;;2.67;;
74677;SDS011;67324;56.326;43.982;2023-05-10T08:11:48;3.03;;;2.63;;
74677;SDS011;67324;56.326;43.982;2023-05-10T08:14:14;3.60;;;2.78;;
74677;SDS011;67324;56.326;43.982;2023-05-10T08:16:40;3.05;;;2.58;;
74677;SDS011;67324;56.326;43.982;2023-05-10T08:19:06;2.95;;;2.65;;
74677;SDS011;67324;56.326;43.982;2023-05-10T08:21:32;3.53;;;2.60;;
74677;SDS011;67324;56.326;43.982;2023-05-10T08:23:58;3.03;;;2.72;;
74677;SDS011;67324;56.326;43.982;2023-05-10T08:26:23;3.72;;;2.60;;
74677;SDS011;67324;56.326;43.982;2023-05-10T08:28:49;3.17;;;2.80;;
74677;SDS011;67324;56.326;43.982;2023-05-10T08:31:15;3.58;;;2.55;;
74677;SDS011;67324;56.326;43.982;2023-05-10T08:33:41;2.78;;;2.47;;
74677;SDS011;67324;56.326;43.982;2023-05-10T08:36:08;3.50;;;2.90;;
74677;SDS011;67324;56.326;43.982;2023-05-10T08:38:34;3.05;;;2.55;;
74677;SDS011;67324;56.326;43.982;2023-05-10T08:41:00;3.40;;;2.70;;
74677;SDS011;67324;56.326;43.982;2023-05-10T08:43:46;3.38;;;2.72;;
74677;SDS011;67324;56.326;43.982;2023-05-10T08:46:16;3.40;;;2.72;;
74677;SDS011;67324;56.326;43.982;2023-05-10T08:48:48;2.75;;;2.35;;
74677;SDS011;67324;56.326;43.982;2023-05-10T08:51:19;3.47;;;2.80;;
74677;SDS011;67324;56.326;43.982;2023-05-10T08:53:52;3.13;;;2.45;;
74677;SDS011;67324;56.326;43.982;2023-05-10T08:56:18;2.88;;;2.40;;
74677;SDS011;67324;56.326;43.982;2023-05-10T08:58:47;2.97;;;2.65;;
74677;SDS011;67324;56.326;43.982;2023-05-10T09:01:14;4.05;;;2.55;;
74677;SDS011;67324;56.326;43.982;2023-05-10T09:03:42;4.25;;;2.63;;
74677;SDS011;67324;56.326;43.982;2023-05-10T09:06:08;2.85;;;2.42;;
74677;SDS011;67324;56.326;43.982;2023-05-10T09:08:37;3.58;;;2.42;;
74677;SDS011;67324;56.326;43.982;2023-05-10T09:11:03;3.55;;;2.53;;
74677;SDS011;67324;56.326;43.982;2023-05-10T09:13:29;3.67;;;2.83;;
74677;SDS011;67324;56.326;43.982;2023-05-10T09:15:55;3.33;;;3.03;;
74677;SDS011;67324;56.326;43.982;2023-05-10T09:18:21;3.38;;;2.85;;
74677;SDS011;67324;56.326;43.982;2023-05-10T09:20:47;3.28;;;2.45;;
74677;SDS011;67324;56.326;43.982;2023-05-10T09:23:13;3.60;;;2.60;;
74677;SDS011;67324;56.326;43.982;2023-05-10T09:25:41;3.75;;;2.60;;
74677;SDS011;67324;56.326;43.982;2023-05-10T09:28:07;2.72;;;2.50;;
74677;SDS011;67324;56.326;43.982;2023-05-10T09:30:34;3.95;;;2.60;;
74677;SDS011;67324;56.326;43.982;2023-05-10T09:33:01;4.32;;;2.90;;
74677;SDS011;67324;56.326;43.982;2023-05-10T09:35:28;4.47;;;2.90;;
74677;SDS011;67324;56.326;43.982;2023-05-10T09:37:56;5.22;;;2.95;;
74677;SDS011;67324;56.326;43.982;2023-05-10T09:40:26;4.82;;;2.90;;
74677;SDS011;67324;56.326;43.982;2023-05-10T09:43:08;5.90;;;3.08;;
74677;SDS011;67324;56.326;43.982;2023-05-10T09:45:36;5.07;;;3.00;;
74677;SDS011;67324;56.326;43.982;2023-05-10T09:48:02;5.13;;;2.60;;
74677;SDS011;67324;56.326;43.982;2023-05-10T09:50:29;4.03;;;2.60;;
74677;SDS011;67324;56.326;43.982;2023-05-10T09:55:25;4.55;;;2.92;;
74677;SDS011;67324;56.326;43.982;2023-05-10T09:58:04;3.80;;;2.80;;
74677;SDS011;67324;56.326;43.982;2023-05-10T10:00:39;4.72;;;3.08;;
74677;SDS011;67324;56.326;43.982;2023-05-10T10:03:11;4.80;;;2.70;;
74677;SDS011;67324;56.326;43.982;2023-05-10T10:05:42;4.75;;;2.80;;
74677;SDS011;67324;56.326;43.982;2023-05-10T10:08:09;4.70;;;2.97;;
74677;SDS011;67324;56.326;43.982;2023-05-10T10:10:35;3.22;;;2.47;;
74677;SDS011;67324;56.326;43.982;2023-05-10T10:13:01;3.33;;;2.55;;
74677;SDS011;67324;56.326;43.982;2023-05-10T10:15:28;3.40;;;2.80;;
74677;SDS011;67324;56.326;43.982;2023-05-10T10:17:54;4.50;;;2.80;;
74677;SDS011;67324;56.326;43.982;2023-05-10T10:20:20;4.20;;;2.63;;
74677;SDS011;67324;56.326;43.982;2023-05-10T10:22:47;4.35;;;2.63;;
74677;SDS011;67324;56.326;43.982;2023-05-10T10:25:14;3.45;;;2.67;;
74677;SDS011;67324;56.326;43.982;2023-05-10T10:35:28;5.65;;;2.92;;
74677;SDS011;67324;56.326;43.982;2023-05-10T10:37:56;5.45;;;2.63;;
74677;SDS011;67324;56.326;43.982;2023-05-10T10:40:41;3.75;;;2.40;;
74677;SDS011;67324;56.326;43.982;2023-05-10T10:49:09;3.58;;;2.70;;
74677;SDS011;67324;56.326;43.982;2023-05-10T10:51:38;3.95;;;2.97;;
74677;SDS011;67324;56.326;43.982;2023-05-10T10:54:08;4.30;;;3.08;;
74677;SDS011;67324;56.326;43.982;2023-05-10T10:57:27;3.78;;;3.13;;
74677;SDS011;67324;56.326;43.982;2023-05-10T10:59:51;3.13;;;2.83;;
74677;SDS011;67324;56.326;43.982;2023-05-10T11:05:41;5.35;;;3.00;;
74677;SDS011;67324;56.326;43.982;2023-05-10T11:08:26;5.72;;;3.00;;
74677;SDS011;67324;56.326;43.982;2023-05-10T11:13:32;8.25;;;3.78;;
74677;SDS011;67324;56.326;43.982;2023-05-10T11:16:20;6.40;;;3.65;;
74677;SDS011;67324;56.326;43.982;2023-05-10T11:19:07;7.97;;;4.53;;
74677;SDS011;67324;56.326;43.982;2023-05-10T11:21:44;6.35;;;4.85;;
74677;SDS011;67324;56.326;43.982;2023-05-10T11:24:14;11.05;;;6.47;;
74677;SDS011;67324;56.326;43.982;2023-05-10T11:26:45;13.05;;;7.55;;
74677;SDS011;67324;56.326;43.982;2023-05-10T11:29:12;16.98;;;7.07;;
74677;SDS011;67324;56.326;43.982;2023-05-10T11:31:43;13.45;;;6.97;;
74677;SDS011;67324;56.326;43.982;2023-05-10T11:34:10;11.52;;;7.20;;
74677;SDS011;67324;56.326;43.982;2023-05-10T11:36:36;14.95;;;8.02;;
74677;SDS011;67324;56.326;43.982;2023-05-10T11:39:03;13.18;;;6.85;;
74677;SDS011;67324;56.326;43.982;2023-05-10T11:41:30;14.68;;;7.15;;
74677;SDS011;67324;56.326;43.982;2023-05-10T11:43:57;15.77;;;6.80;;
74677;SDS011;67324;56.326;43.982;2023-05-10T11:46:24;19.77;;;7.00;;
74677;SDS011;67324;56.326;43.982;2023-05-10T11:48:53;11.95;;;6.75;;
74677;SDS011;67324;56.326;43.982;2023-05-10T11:51:21;13.25;;;6.93;;
74677;SDS011;67324;56.326;43.982;2023-05-10T11:53:49;14.10;;;6.53;;
74677;SDS011;67324;56.326;43.982;2023-05-10T11:56:16;14.13;;;7.05;;
74677;SDS011;67324;56.326;43.982;2023-05-10T11:58:42;12.10;;;6.75;;
74677;SDS011;67324;56.326;43.982;2023-05-10T12:01:08;11.13;;;6.40;;
74677;SDS011;67324;56.326;43.982;2023-05-10T12:03:36;10.77;;;6.07;;
74677;SDS011;67324;56.326;43.982;2023-05-10T12:06:02;12.85;;;6.57;;
74677;SDS011;67324;56.326;43.982;2023-05-10T12:08:29;14.27;;;6.40;;
74677;SDS011;67324;56.326;43.982;2023-05-10T12:11:06;12.27;;;6.40;;
74677;SDS011;67324;56.326;43.982;2023-05-10T12:13:40;11.45;;;6.60;;
74677;SDS011;67324;56.326;43.982;2023-05-10T12:16:13;11.80;;;6.20;;
74677;SDS011;67324;56.326;43.982;2023-05-10T12:19:00;10.82;;;6.47;;
74677;SDS011;67324;56.326;43.982;2023-05-10T12:21:27;11.40;;;6.55;;
74677;SDS011;67324;56.326;43.982;2023-05-10T12:23:59;13.32;;;6.65;;
74677;SDS011;67324;56.326;43.982;2023-05-10T12:26:27;13.85;;;6.35;;
74677;SDS011;67324;56.326;43.982;2023-05-10T12:28:54;14.18;;;6.63;;
74677;SDS011;67324;56.326;43.982;2023-05-10T12:31:52;9.98;;;5.75;;
74677;SDS011;67324;56.326;43.982;2023-05-10T12:34:37;12.00;;;5.95;;
74677;SDS011;67324;56.326;43.982;2023-05-10T12:37:23;10.75;;;6.10;;
74677;SDS011;67324;56.326;43.982;2023-05-10T12:39:52;9.25;;;6.03;;
74677;SDS011;67324;56.326;43.982;2023-05-10T12:42:18;11.63;;;6.18;;
74677;SDS011;67324;56.326;43.982;2023-05-10T12:44:44;12.73;;;6.80;;
74677;SDS011;67324;56.326;43.982;2023-05-10T12:47:10;12.02;;;5.95;;
74677;SDS011;67324;56.326;43.982;2023-05-10T12:49:36;8.57;;;6.05;;
74677;SDS011;67324;56.326;43.982;2023-05-10T12:52:02;10.73;;;6.07;;
74677;SDS011;67324;56.326;43.982;2023-05-10T12:54:28;11.48;;;6.38;;
74677;SDS011;67324;56.326;43.982;2023-05-10T12:56:55;7.82;;;5.60;;
74677;SDS011;67324;56.326;43.982;2023-05-10T12:59:20;9.25;;;5.70;;
74677;SDS011;67324;56.326;43.982;2023-05-10T13:01:46;11.07;;;6.10;;
74677;SDS011;67324;56.326;43.982;2023-05-10T13:04:12;10.85;;;5.78;;
74677;SDS011;67324;56.326;43.982;2023-05-10T13:06:38;9.20;;;5.50;;
74677;SDS011;67324;56.326;43.982;2023-05-10T13:09:04;10.80;;;6.25;;
74677;SDS011;67324;56.326;43.982;2023-05-10T13:11:30;10.93;;;5.93;;
74677;SDS011;67324;56.326;43.982;2023-05-10T13:13:56;9.52;;;5.90;;
74677;SDS011;67324;56.326;43.982;2023-05-10T13:16:22;9.75;;;5.50;;
74677;SDS011;67324;56.326;43.982;2023-05-10T13:18:48;8.65;;;5.45;;
74677;SDS011;67324;56.326;43.982;2023-05-10T13:21:14;8.43;;;5.65;;
74677;SDS011;67324;56.326;43.982;2023-05-10T13:23:40;10.68;;;5.97;;
74677;SDS011;67324;56.326;43.982;2023-05-10T13:26:06;9.63;;;6.28;;
74677;SDS011;67324;56.326;43.982;2023-05-10T13:28:33;10.38;;;5.97;;
74677;SDS011;67324;56.326;43.982;2023-05-10T13:30:59;7.68;;;5.30;;
74677;SDS011;67324;56.326;43.982;2023-05-10T13:33:25;9.15;;;5.70;;
74677;SDS011;67324;56.326;43.982;2023-05-10T13:36:09;9.82;;;5.18;;
74677;SDS011;67324;56.326;43.982;2023-05-10T13:38:35;8.43;;;5.25;;
74677;SDS011;67324;56.326;43.982;2023-05-10T13:41:01;9.65;;;5.32;;
74677;SDS011;67324;56.326;43.982;2023-05-10T13:43:28;8.95;;;5.60;;
74677;SDS011;67324;56.326;43.982;2023-05-10T13:45:55;9.88;;;5.78;;
74677;SDS011;67324;56.326;43.982;2023-05-10T13:48:21;10.65;;;5.70;;
74677;SDS011;67324;56.326;43.982;2023-05-10T13:50:46;9.00;;;5.82;;
74677;SDS011;67324;56.326;43.982;2023-05-10T13:53:12;11.15;;;6.10;;
74677;SDS011;67324;56.326;43.982;2023-05-10T13:55:41;11.10;;;5.88;;
74677;SDS011;67324;56.326;43.982;2023-05-10T13:58:20;9.98;;;5.30;;
74677;SDS011;67324;56.326;43.982;2023-05-10T14:00:51;12.50;;;5.65;;
74677;SDS011;67324;56.326;43.982;2023-05-10T14:03:36;8.40;;;5.35;;
74677;SDS011;67324;56.326;43.982;2023-05-10T14:06:02;10.13;;;5.38;;
74677;SDS011;67324;56.326;43.982;2023-05-10T14:08:28;8.93;;;5.47;;
74677;SDS011;67324;56.326;43.982;2023-05-10T14:10:54;9.93;;;5.50;;
74677;SDS011;67324;56.326;43.982;2023-05-10T14:13:21;9.60;;;5.47;;
74677;SDS011;67324;56.326;43.982;2023-05-10T14:15:47;9.48;;;5.38;;
74677;SDS011;67324;56.326;43.982;2023-05-10T14:18:13;9.55;;;5.28;;
74677;SDS011;67324;56.326;43.982;2023-05-10T14:20:39;10.98;;;6.28;;
74677;SDS011;67324;56.326;43.982;2023-05-10T14:23:05;9.27;;;5.88;;
74677;SDS011;67324;56.326;43.982;2023-05-10T14:25:31;8.50;;;5.68;;
74677;SDS011;67324;56.326;43.982;2023-05-10T14:27:58;7.18;;;4.97;;
74677;SDS011;67324;56.326;43.982;2023-05-10T14:30:24;10.00;;;5.40;;
74677;SDS011;67324;56.326;43.982;2023-05-10T14:32:51;10.38;;;5.53;;
74677;SDS011;67324;56.326;43.982;2023-05-10T14:35:19;8.30;;;5.40;;
74677;SDS011;67324;56.326;43.982;2023-05-10T14:37:45;10.10;;;5.82;;
74677;SDS011;67324;56.326;43.982;2023-05-10T14:40:11;10.13;;;5.13;;
74677;SDS011;67324;56.326;43.982;2023-05-10T14:42:37;7.53;;;5.28;;
74677;SDS011;67324;56.326;43.982;2023-05-10T14:45:03;9.13;;;5.30;;
74677;SDS011;67324;56.326;43.982;2023-05-10T14:47:31;9.35;;;5.13;;
74677;SDS011;67324;56.326;43.982;2023-05-10T14:49:57;11.43;;;5.40;;
74677;SDS011;67324;56.326;43.982;2023-05-10T14:52:23;9.70;;;5.70;;
74677;SDS011;67324;56.326;43.982;2023-05-10T14:54:49;10.63;;;5.70;;
74677;SDS011;67324;56.326;43.982;2023-05-10T14:57:15;8.35;;;5.72;;
74677;SDS011;67324;56.326;43.982;2023-05-10T14:59:41;9.90;;;5.53;;
74677;SDS011;67324;56.326;43.982;2023-05-10T15:02:07;8.88;;;5.85;;
74677;SDS011;67324;56.326;43.982;2023-05-10T15:04:33;8.40;;;5.50;;
74677;SDS011;67324;56.326;43.982;2023-05-10T15:06:59;8.15;;;5.50;;
74677;SDS011;67324;56.326;43.982;2023-05-10T15:09:26;11.40;;;6.07;;
74677;SDS011;67324;56.326;43.982;2023-05-10T15:11:53;9.00;;;5.43;;
74677;SDS011;67324;56.326;43.982;2023-05-10T15:14:19;11.00;;;6.68;;
74677;SDS011;67324;56.326;43.982;2023-05-10T15:16:45;9.73;;;5.45;;
74677;SDS011;67324;56.326;43.982;2023-05-10T15:19:11;9.82;;;5.93;;
74677;SDS011;67324;56.326;43.982;2023-05-10T15:21:37;8.73;;;5.20;;
74677;SDS011;67324;56.326;43.982;2023-05-10T15:24:05;7.53;;;5.07;;